sensor_id;sensor_type;location;lat;lon;timestamp;P1;durP1;ratioP1;P2;durP2;ratioP2
7166;SDS011;3625;51.762;14.320;2023-06-14T00:00:05;3.10;;;2.67;;
7166;SDS011;3625;51.762;14.320;2023-06-14T00:02:37;3.43;;;3.13;;
7166;SDS011;3625;51.762;14.320;2023-06-14T00:05:06;3.30;;;3.00;;
7166;SDS011;3625;51.762;14.320;2023-06-14T00:07:39;5.33;;;3.23;;
7166;SDS011;3625;51.762;14.320;2023-06-14T00:10:10;3.50;;;3.10;;
7166;SDS011;3625;51.762;14.320;2023-06-14T00:12:40;3.10;;;2.80;;
7166;SDS011;3625;51.762;14.320;2023-06-14T00:15:09;3.53;;;3.23;;
7166;SDS011;3625;51.762;14.320;2023-06-14T00:17:39;4.03;;;3.40;;
7166;SDS011;3625;51.762;14.320;2023-06-14T00:20:07;3.40;;;3.10;;
7166;SDS011;3625;51.762;14.320;2023-06-14T00:22:38;4.50;;;3.47;;
7166;SDS011;3625;51.762;14.320;2023-06-14T00:25:06;4.17;;;3.73;;
7166;SDS011;3625;51.762;14.320;2023-06-14T00:27:53;3.47;;;3.17;;
7166;SDS011;3625;51.762;14.320;2023-06-14T00:30:23;4.00;;;3.53;;
7166;SDS011;3625;51.762;14.320;2023-06-14T00:32:58;3.60;;;3.30;;
7166;SDS011;3625;51.762;14.320;2023-06-14T00:35:27;3.47;;;3.17;;
7166;SDS011;3625;51.762;14.320;2023-06-14T00:37:56;4.00;;;3.70;;
7166;SDS011;3625;51.762;14.320;2023-06-14T00:40:26;4.27;;;3.40;;
7166;SDS011;3625;51.762;14.320;2023-06-14T00:42:54;4.03;;;3.40;;
7166;SDS011;3625;51.762;14.320;2023-06-14T00:45:23;3.67;;;3.33;;
7166;SDS011;3625;51.762;14.320;2023-06-14T00:47:52;4.00;;;3.70;;
7166;SDS011;3625;51.762;14.320;2023-06-14T00:50:23;5.00;;;3.30;;
7166;SDS011;3625;51.762;14.320;2023-06-14T00:52:52;6.80;;;3.47;;
7166;SDS011;3625;51.762;14.320;2023-06-14T00:55:21;6.60;;;3.73;;
7166;SDS011;3625;51.762;14.320;2023-06-14T00:57:50;4.10;;;3.70;;
7166;SDS011;3625;51.762;14.320;2023-06-14T01:00:19;4.13;;;3.77;;
7166;SDS011;3625;51.762;14.320;2023-06-14T01:02:48;4.33;;;3.23;;
7166;SDS011;3625;51.762;14.320;2023-06-14T01:05:17;4.40;;;3.83;;
7166;SDS011;3625;51.762;14.320;2023-06-14T01:07:50;4.20;;;3.80;;
7166;SDS011;3625;51.762;14.320;2023-06-14T01:10:41;4.90;;;3.60;;
7166;SDS011;3625;51.762;14.320;2023-06-14T01:13:23;6.57;;;3.77;;
7166;SDS011;3625;51.762;14.320;2023-06-14T01:15:56;5.00;;;3.70;;
7166;SDS011;3625;51.762;14.320;2023-06-14T01:18:27;4.27;;;3.80;;
7166;SDS011;3625;51.762;14.320;2023-06-14T01:20:56;4.67;;;4.10;;
7166;SDS011;3625;51.762;14.320;2023-06-14T01:23:26;6.47;;;4.00;;
7166;SDS011;3625;51.762;14.320;2023-06-14T01:25:59;4.40;;;4.00;;
7166;SDS011;3625;51.762;14.320;2023-06-14T01:28:30;5.57;;;5.07;;
7166;SDS011;3625;51.762;14.320;2023-06-14T01:31:02;6.00;;;4.13;;
7166;SDS011;3625;51.762;14.320;2023-06-14T01:33:32;4.50;;;4.10;;
7166;SDS011;3625;51.762;14.320;2023-06-14T01:36:03;4.93;;;4.53;;
7166;SDS011;3625;51.762;14.320;2023-06-14T01:38:37;5.30;;;4.80;;
7166;SDS011;3625;51.762;14.320;2023-06-14T01:41:07;5.30;;;4.83;;
7166;SDS011;3625;51.762;14.320;2023-06-14T01:43:37;6.93;;;4.90;;
7166;SDS011;3625;51.762;14.320;2023-06-14T01:46:08;5.00;;;4.43;;
7166;SDS011;3625;51.762;14.320;2023-06-14T01:48:39;5.90;;;4.50;;
7166;SDS011;3625;51.762;14.320;2023-06-14T01:51:08;4.47;;;4.13;;
7166;SDS011;3625;51.762;14.320;2023-06-14T01:53:38;5.67;;;5.17;;
7166;SDS011;3625;51.762;14.320;2023-06-14T01:56:09;6.70;;;4.60;;
7166;SDS011;3625;51.762;14.320;2023-06-14T01:58:38;4.60;;;4.20;;
7166;SDS011;3625;51.762;14.320;2023-06-14T16:11:04;3.28;;;2.60;;
7166;SDS011;3625;51.762;14.320;2023-06-14T16:13:32;3.30;;;2.45;;
7166;SDS011;3625;51.762;14.320;2023-06-14T16:16:02;3.20;;;2.28;;
7166;SDS011;3625;51.762;14.320;2023-06-14T16:18:32;2.13;;;2.00;;
7166;SDS011;3625;51.762;14.320;2023-06-14T16:21:00;2.88;;;2.30;;
7166;SDS011;3625;51.762;14.320;2023-06-14T16:23:32;2.70;;;2.10;;
7166;SDS011;3625;51.762;14.320;2023-06-14T16:26:01;3.30;;;2.70;;
7166;SDS011;3625;51.762;14.320;2023-06-14T16:28:31;3.38;;;2.00;;
7166;SDS011;3625;51.762;14.320;2023-06-14T16:30:59;3.00;;;2.22;;
7166;SDS011;3625;51.762;14.320;2023-06-14T16:33:28;2.55;;;2.10;;
7166;SDS011;3625;51.762;14.320;2023-06-14T16:35:56;4.38;;;2.45;;
7166;SDS011;3625;51.762;14.320;2023-06-14T16:38:25;5.53;;;2.17;;
7166;SDS011;3625;51.762;14.320;2023-06-14T16:40:54;2.67;;;2.00;;
7166;SDS011;3625;51.762;14.320;2023-06-14T16:43:22;2.65;;;2.17;;
7166;SDS011;3625;51.762;14.320;2023-06-14T16:45:53;2.47;;;1.95;;
7166;SDS011;3625;51.762;14.320;2023-06-14T16:48:22;2.20;;;2.00;;
7166;SDS011;3625;51.762;14.320;2023-06-14T16:50:50;2.17;;;1.98;;
7166;SDS011;3625;51.762;14.320;2023-06-14T16:53:19;3.20;;;2.28;;
7166;SDS011;3625;51.762;14.320;2023-06-14T16:55:48;2.95;;;2.17;;
7166;SDS011;3625;51.762;14.320;2023-06-14T16:58:17;2.22;;;2.03;;
7166;SDS011;3625;51.762;14.320;2023-06-14T17:00:45;2.63;;;1.90;;
7166;SDS011;3625;51.762;14.320;2023-06-14T17:03:15;3.50;;;2.20;;
7166;SDS011;3625;51.762;14.320;2023-06-14T17:08:32;2.38;;;2.10;;
7166;SDS011;3625;51.762;14.320;2023-06-14T17:11:01;2.13;;;1.92;;
7166;SDS011;3625;51.762;14.320;2023-06-14T17:13:29;3.60;;;2.30;;
7166;SDS011;3625;51.762;14.320;2023-06-14T17:15:58;2.53;;;2.08;;
7166;SDS011;3625;51.762;14.320;2023-06-14T17:18:28;3.05;;;2.72;;
7166;SDS011;3625;51.762;14.320;2023-06-14T17:20:57;7.60;;;3.35;;
7166;SDS011;3625;51.762;14.320;2023-06-14T17:23:26;3.90;;;2.63;;
7166;SDS011;3625;51.762;14.320;2023-06-14T17:25:54;5.90;;;3.30;;
7166;SDS011;3625;51.762;14.320;2023-06-14T17:28:23;5.30;;;3.13;;
7166;SDS011;3625;51.762;14.320;2023-06-14T17:30:53;4.07;;;3.20;;
7166;SDS011;3625;51.762;14.320;2023-06-14T17:33:21;3.60;;;3.13;;
7166;SDS011;3625;51.762;14.320;2023-06-14T17:35:51;3.95;;;3.20;;
7166;SDS011;3625;51.762;14.320;2023-06-14T17:38:20;4.13;;;3.40;;
7166;SDS011;3625;51.762;14.320;2023-06-14T17:40:48;4.57;;;3.63;;
7166;SDS011;3625;51.762;14.320;2023-06-14T17:43:17;3.75;;;3.45;;
7166;SDS011;3625;51.762;14.320;2023-06-14T17:45:48;6.20;;;3.97;;
7166;SDS011;3625;51.762;14.320;2023-06-14T17:48:17;7.82;;;3.67;;
7166;SDS011;3625;51.762;14.320;2023-06-14T17:50:46;5.82;;;4.10;;
7166;SDS011;3625;51.762;14.320;2023-06-14T17:53:17;4.78;;;3.97;;
7166;SDS011;3625;51.762;14.320;2023-06-14T17:55:46;5.32;;;3.67;;
7166;SDS011;3625;51.762;14.320;2023-06-14T17:58:14;4.22;;;3.83;;
7166;SDS011;3625;51.762;14.320;2023-06-14T18:00:43;4.00;;;3.45;;
7166;SDS011;3625;51.762;14.320;2023-06-14T18:03:12;5.00;;;3.88;;
7166;SDS011;3625;51.762;14.320;2023-06-14T18:05:41;4.00;;;3.70;;
7166;SDS011;3625;51.762;14.320;2023-06-14T18:08:14;6.10;;;3.72;;
7166;SDS011;3625;51.762;14.320;2023-06-14T18:10:44;4.15;;;3.75;;
7166;SDS011;3625;51.762;14.320;2023-06-14T18:13:13;4.55;;;3.80;;
7166;SDS011;3625;51.762;14.320;2023-06-14T18:15:45;4.53;;;3.70;;
7166;SDS011;3625;51.762;14.320;2023-06-14T18:18:14;4.63;;;4.15;;
7166;SDS011;3625;51.762;14.320;2023-06-14T18:20:43;4.82;;;3.97;;
7166;SDS011;3625;51.762;14.320;2023-06-14T18:23:11;6.75;;;4.60;;
7166;SDS011;3625;51.762;14.320;2023-06-14T18:25:40;4.93;;;3.90;;
7166;SDS011;3625;51.762;14.320;2023-06-14T18:28:10;4.82;;;3.78;;
7166;SDS011;3625;51.762;14.320;2023-06-14T18:30:39;4.32;;;4.00;;
7166;SDS011;3625;51.762;14.320;2023-06-14T18:33:13;4.90;;;3.60;;
7166;SDS011;3625;51.762;14.320;2023-06-14T18:35:43;4.20;;;3.88;;
7166;SDS011;3625;51.762;14.320;2023-06-14T18:38:12;5.07;;;4.45;;
7166;SDS011;3625;51.762;14.320;2023-06-14T18:40:41;4.88;;;4.38;;
7166;SDS011;3625;51.762;14.320;2023-06-14T18:45:48;4.68;;;3.80;;
7166;SDS011;3625;51.762;14.320;2023-06-14T18:48:17;5.95;;;4.00;;
7166;SDS011;3625;51.762;14.320;2023-06-14T18:50:51;3.88;;;3.40;;
7166;SDS011;3625;51.762;14.320;2023-06-14T18:53:26;3.75;;;3.45;;
7166;SDS011;3625;51.762;14.320;2023-06-14T18:55:56;4.47;;;4.07;;
7166;SDS011;3625;51.762;14.320;2023-06-14T18:58:31;5.20;;;3.65;;
7166;SDS011;3625;51.762;14.320;2023-06-14T19:01:04;4.30;;;3.90;;
7166;SDS011;3625;51.762;14.320;2023-06-14T19:03:32;3.92;;;3.63;;
7166;SDS011;3625;51.762;14.320;2023-06-14T19:06:02;5.30;;;3.60;;
7166;SDS011;3625;51.762;14.320;2023-06-14T19:08:31;5.88;;;3.70;;
7166;SDS011;3625;51.762;14.320;2023-06-14T19:10:59;4.15;;;3.85;;
7166;SDS011;3625;51.762;14.320;2023-06-14T19:13:28;3.80;;;3.50;;
7166;SDS011;3625;51.762;14.320;2023-06-14T19:15:58;3.90;;;3.50;;
7166;SDS011;3625;51.762;14.320;2023-06-14T19:18:27;3.67;;;3.38;;
7166;SDS011;3625;51.762;14.320;2023-06-14T19:20:55;5.10;;;4.10;;
7166;SDS011;3625;51.762;14.320;2023-06-14T19:23:24;4.03;;;3.67;;
7166;SDS011;3625;51.762;14.320;2023-06-14T19:25:53;4.03;;;3.72;;
7166;SDS011;3625;51.762;14.320;2023-06-14T19:28:21;4.60;;;3.78;;
7166;SDS011;3625;51.762;14.320;2023-06-14T19:30:53;4.25;;;3.85;;
7166;SDS011;3625;51.762;14.320;2023-06-14T19:33:23;11.85;;;4.60;;
7166;SDS011;3625;51.762;14.320;2023-06-14T19:35:51;4.70;;;4.30;;
7166;SDS011;3625;51.762;14.320;2023-06-14T19:38:20;4.80;;;4.43;;
7166;SDS011;3625;51.762;14.320;2023-06-14T19:40:49;4.72;;;4.32;;
7166;SDS011;3625;51.762;14.320;2023-06-14T19:43:20;3.90;;;3.60;;
7166;SDS011;3625;51.762;14.320;2023-06-14T19:45:49;4.63;;;4.25;;
7166;SDS011;3625;51.762;14.320;2023-06-14T19:48:17;5.00;;;4.50;;
7166;SDS011;3625;51.762;14.320;2023-06-14T19:50:48;5.35;;;4.78;;
7166;SDS011;3625;51.762;14.320;2023-06-14T19:53:18;5.25;;;4.78;;
7166;SDS011;3625;51.762;14.320;2023-06-14T19:55:47;4.60;;;4.20;;
7166;SDS011;3625;51.762;14.320;2023-06-14T19:58:16;4.68;;;4.32;;
7166;SDS011;3625;51.762;14.320;2023-06-14T20:00:45;5.50;;;4.20;;
7166;SDS011;3625;51.762;14.320;2023-06-14T20:03:15;4.47;;;4.18;;
7166;SDS011;3625;51.762;14.320;2023-06-14T20:05:43;5.90;;;4.20;;
7166;SDS011;3625;51.762;14.320;2023-06-14T20:08:13;5.20;;;4.70;;
7166;SDS011;3625;51.762;14.320;2023-06-14T20:10:47;4.07;;;3.78;;
7166;SDS011;3625;51.762;14.320;2023-06-14T20:13:15;5.03;;;4.63;;
7166;SDS011;3625;51.762;14.320;2023-06-14T20:15:46;5.00;;;4.60;;
7166;SDS011;3625;51.762;14.320;2023-06-14T20:18:14;5.18;;;4.68;;
7166;SDS011;3625;51.762;14.320;2023-06-14T20:20:43;5.07;;;4.57;;
7166;SDS011;3625;51.762;14.320;2023-06-14T20:23:11;5.10;;;4.70;;
7166;SDS011;3625;51.762;14.320;2023-06-14T20:25:41;5.30;;;4.80;;
7166;SDS011;3625;51.762;14.320;2023-06-14T20:28:10;5.18;;;4.70;;
7166;SDS011;3625;51.762;14.320;2023-06-14T20:30:38;5.32;;;4.78;;
7166;SDS011;3625;51.762;14.320;2023-06-14T20:33:07;5.32;;;4.90;;
7166;SDS011;3625;51.762;14.320;2023-06-14T20:35:36;5.03;;;4.32;;
7166;SDS011;3625;51.762;14.320;2023-06-14T20:38:08;5.35;;;4.55;;
7166;SDS011;3625;51.762;14.320;2023-06-14T20:40:38;5.28;;;4.88;;
7166;SDS011;3625;51.762;14.320;2023-06-14T20:43:06;5.43;;;4.97;;
7166;SDS011;3625;51.762;14.320;2023-06-14T20:45:38;5.07;;;4.43;;
7166;SDS011;3625;51.762;14.320;2023-06-14T20:48:06;5.80;;;5.30;;
7166;SDS011;3625;51.762;14.320;2023-06-14T20:50:37;6.10;;;5.60;;
7166;SDS011;3625;51.762;14.320;2023-06-14T20:53:05;6.40;;;5.80;;
7166;SDS011;3625;51.762;14.320;2023-06-14T20:55:34;5.93;;;5.43;;
7166;SDS011;3625;51.762;14.320;2023-06-14T20:58:04;6.05;;;5.50;;
7166;SDS011;3625;51.762;14.320;2023-06-14T21:00:33;5.22;;;4.72;;
7166;SDS011;3625;51.762;14.320;2023-06-14T21:03:03;5.45;;;4.95;;
7166;SDS011;3625;51.762;14.320;2023-06-14T21:05:31;6.03;;;5.47;;
7166;SDS011;3625;51.762;14.320;2023-06-14T21:08:01;7.45;;;5.97;;
7166;SDS011;3625;51.762;14.320;2023-06-14T21:10:30;6.28;;;5.70;;
7166;SDS011;3625;51.762;14.320;2023-06-14T21:12:58;7.63;;;6.45;;
7166;SDS011;3625;51.762;14.320;2023-06-14T21:15:28;6.32;;;5.75;;
7166;SDS011;3625;51.762;14.320;2023-06-14T21:17:57;6.40;;;5.75;;
7166;SDS011;3625;51.762;14.320;2023-06-14T21:20:25;6.18;;;5.60;;
7166;SDS011;3625;51.762;14.320;2023-06-14T21:22:54;6.20;;;5.70;;
7166;SDS011;3625;51.762;14.320;2023-06-14T21:25:23;5.85;;;5.32;;
7166;SDS011;3625;51.762;14.320;2023-06-14T21:27:51;5.95;;;5.45;;
7166;SDS011;3625;51.762;14.320;2023-06-14T21:30:32;5.93;;;5.43;;
7166;SDS011;3625;51.762;14.320;2023-06-14T21:33:03;6.97;;;6.38;;
7166;SDS011;3625;51.762;14.320;2023-06-14T21:35:33;6.38;;;5.85;;
7166;SDS011;3625;51.762;14.320;2023-06-14T21:38:01;7.00;;;6.38;;
7166;SDS011;3625;51.762;14.320;2023-06-14T21:40:30;7.22;;;5.50;;
7166;SDS011;3625;51.762;14.320;2023-06-14T21:42:58;6.22;;;5.68;;
7166;SDS011;3625;51.762;14.320;2023-06-14T21:45:27;5.90;;;5.40;;
7166;SDS011;3625;51.762;14.320;2023-06-14T21:47:57;5.70;;;5.20;;
7166;SDS011;3625;51.762;14.320;2023-06-14T21:50:26;6.20;;;5.68;;
7166;SDS011;3625;51.762;14.320;2023-06-14T21:52:54;5.97;;;5.47;;
7166;SDS011;3625;51.762;14.320;2023-06-14T21:55:23;8.02;;;5.90;;
7166;SDS011;3625;51.762;14.320;2023-06-14T21:57:52;6.75;;;5.53;;
7166;SDS011;3625;51.762;14.320;2023-06-14T22:00:20;6.10;;;5.60;;
7166;SDS011;3625;51.762;14.320;2023-06-14T22:02:50;6.10;;;5.60;;
7166;SDS011;3625;51.762;14.320;2023-06-14T22:05:21;6.63;;;6.03;;
7166;SDS011;3625;51.762;14.320;2023-06-14T22:07:49;6.18;;;5.68;;
7166;SDS011;3625;51.762;14.320;2023-06-14T22:10:18;6.15;;;5.65;;
7166;SDS011;3625;51.762;14.320;2023-06-14T22:12:46;6.40;;;5.72;;
7166;SDS011;3625;51.762;14.320;2023-06-14T22:15:18;6.20;;;5.70;;
7166;SDS011;3625;51.762;14.320;2023-06-14T22:17:47;6.80;;;6.20;;
7166;SDS011;3625;51.762;14.320;2023-06-14T22:20:18;6.32;;;5.72;;
7166;SDS011;3625;51.762;14.320;2023-06-14T22:22:48;5.75;;;5.20;;
7166;SDS011;3625;51.762;14.320;2023-06-14T22:25:17;6.15;;;5.65;;
7166;SDS011;3625;51.762;14.320;2023-06-14T22:27:46;6.25;;;5.65;;
7166;SDS011;3625;51.762;14.320;2023-06-14T22:30:15;5.60;;;5.07;;
7166;SDS011;3625;51.762;14.320;2023-06-14T22:32:44;5.97;;;5.47;;
7166;SDS011;3625;51.762;14.320;2023-06-14T22:35:15;5.90;;;5.28;;
7166;SDS011;3625;51.762;14.320;2023-06-14T22:37:46;5.35;;;4.90;;
7166;SDS011;3625;51.762;14.320;2023-06-14T22:40:16;6.00;;;5.50;;
7166;SDS011;3625;51.762;14.320;2023-06-14T22:42:45;6.38;;;5.78;;
7166;SDS011;3625;51.762;14.320;2023-06-14T22:45:16;5.85;;;5.35;;
7166;SDS011;3625;51.762;14.320;2023-06-14T22:47:52;5.65;;;5.25;;
7166;SDS011;3625;51.762;14.320;2023-06-14T22:50:20;5.80;;;5.30;;
7166;SDS011;3625;51.762;14.320;2023-06-14T22:52:51;5.38;;;4.97;;
7166;SDS011;3625;51.762;14.320;2023-06-14T22:55:19;5.45;;;5.05;;
7166;SDS011;3625;51.762;14.320;2023-06-14T22:57:52;5.57;;;5.07;;
7166;SDS011;3625;51.762;14.320;2023-06-14T23:00:21;5.20;;;4.80;;
7166;SDS011;3625;51.762;14.320;2023-06-14T23:02:49;6.78;;;5.03;;
7166;SDS011;3625;51.762;14.320;2023-06-14T23:05:18;6.18;;;5.32;;
7166;SDS011;3625;51.762;14.320;2023-06-14T23:07:47;7.10;;;5.20;;
7166;SDS011;3625;51.762;14.320;2023-06-14T23:10:17;5.57;;;5.07;;
7166;SDS011;3625;51.762;14.320;2023-06-14T23:12:49;5.82;;;5.20;;
7166;SDS011;3625;51.762;14.320;2023-06-14T23:15:17;5.55;;;4.68;;
7166;SDS011;3625;51.762;14.320;2023-06-14T23:17:46;5.40;;;4.55;;
7166;SDS011;3625;51.762;14.320;2023-06-14T23:20:17;5.60;;;4.82;;
7166;SDS011;3625;51.762;14.320;2023-06-14T23:22:45;5.50;;;5.05;;
7166;SDS011;3625;51.762;14.320;2023-06-14T23:25:14;5.35;;;4.88;;
7166;SDS011;3625;51.762;14.320;2023-06-14T23:27:45;5.45;;;4.95;;
7166;SDS011;3625;51.762;14.320;2023-06-14T23:30:15;5.70;;;5.13;;
7166;SDS011;3625;51.762;14.320;2023-06-14T23:32:44;6.57;;;5.80;;
7166;SDS011;3625;51.762;14.320;2023-06-14T23:35:15;6.68;;;6.07;;
7166;SDS011;3625;51.762;14.320;2023-06-14T23:37:45;7.00;;;6.30;;
7166;SDS011;3625;51.762;14.320;2023-06-14T23:40:14;6.80;;;6.15;;
7166;SDS011;3625;51.762;14.320;2023-06-14T23:42:43;6.70;;;6.10;;
7166;SDS011;3625;51.762;14.320;2023-06-14T23:45:17;6.40;;;5.70;;
7166;SDS011;3625;51.762;14.320;2023-06-14T23:47:45;6.20;;;5.60;;
7166;SDS011;3625;51.762;14.320;2023-06-14T23:50:14;5.72;;;5.22;;
7166;SDS011;3625;51.762;14.320;2023-06-14T23:52:43;5.53;;;5.03;;
7166;SDS011;3625;51.762;14.320;2023-06-14T23:55:11;6.53;;;5.60;;
7166;SDS011;3625;51.762;14.320;2023-06-14T23:57:47;5.75;;;5.25;;
